world map with NZWD marked

NZWD - Airport

This information may not be accurate or current and is not valid for navigation or flight planning. No warranty of fitness for any purpose is made or implied.
Donate via PayPal

Additional information is available on the NEW Great Circle Mapper

Location
City:  McMurdo Station, Ross Island, Antarctica
Name:Williams Field
ICAO:NZWD

Details
Type:Airport (Aerodrome, Airfield)
Latitude:77°52'02"S (-77.867357)
Longitude:167°03'24"E (167.056572)
Datum:WGS 1984
Elevation:68 ft (21 m)
Runways:2
Longest:10000 × 220 ft (3048 × 67 m)

Time
Timezone:UTC+12 (DST+15)
Local Time:

Weather
METAR:NZWD  141755Z 32009KT 9999 FEW035 SCT090 BKN120 M06/M10 A2894 RMK SLP799 GRID13009KT SDG/HDG
TAF:NZWD  (expired)

Related Locations
Nearby:
Farthest:BGDH: 12315 mi / 19818 km
Danmarkshavn, GL

Find:

   beyond  
but within

Other Information
Maps:
Links:
Sources:

  


 


Great Circle Mapper   Great Circle Mapper
Great Circle Mapper FAQ   Great Circle Mapper FAQ
  Karl's Home Page
KLSē   KLSē Home
   GC on Facebook
Airlines of the World   Airlines of the World
Donate via PayPal


Copyright © 2004-2018, Karl L. Swartz. All rights reserved.
All trademarks mentioned herein belong to their respective owners.

Please see credits for attribution and copyright information.

Karl Swartz <karl@kls2.com>
  Powered by FreeBSD
Valid HTML 4.01!
Labeled with ICRA
hCard Microformat
Geo Microformat